sensor_id;sensor_type;location;lat;lon;timestamp;P1;P4;P2;P0;N10;N4;N25;N1;N05;TS
79466;SPS30;68933;49.726;9.226;2024-02-16T00:00:50;4.3;;4.3;4.1;;;;;;
79466;SPS30;68933;49.726;9.226;2024-02-16T00:03:03;4.7;;4.7;4.5;;;;;;
79466;SPS30;68933;49.726;9.226;2024-02-16T00:05:16;4.7;;4.7;4.5;;;;;;
79466;SPS30;68933;49.726;9.226;2024-02-16T00:07:29;4.5;;4.5;4.2;;;;;;
79466;SPS30;68933;49.726;9.226;2024-02-16T00:09:42;4.5;;4.5;4.2;;;;;;
79466;SPS30;68933;49.726;9.226;2024-02-16T00:11:55;5;;5;4.8;;;;;;
79466;SPS30;68933;49.726;9.226;2024-02-16T00:14:08;5;;5;4.8;;;;;;
79466;SPS30;68933;49.726;9.226;2024-02-16T00:16:21;6.1;;6.1;5.8;;;;;;
79466;SPS30;68933;49.726;9.226;2024-02-16T00:18:34;6.1;;6.1;5.8;;;;;;
79466;SPS30;68933;49.726;9.226;2024-02-16T00:20:47;6.5;;6.5;6.2;;;;;;
79466;SPS30;68933;49.726;9.226;2024-02-16T00:23:00;6.5;;6.5;6.2;;;;;;
79466;SPS30;68933;49.726;9.226;2024-02-16T00:25:13;6.3;;6.3;8.8;;;;;;
79466;SPS30;68933;49.726;9.226;2024-02-16T00:33:35;6.3;;6.3;8.8;;;;;;
79466;SPS30;68933;49.726;9.226;2024-02-16T00:35:47;6.7;;6.7;6.3;;;;;;
79466;SPS30;68933;49.726;9.226;2024-02-16T00:38:00;6.7;;6.7;6.3;;;;;;
79466;SPS30;68933;49.726;9.226;2024-02-16T00:40:13;5.7;;5.7;5.5;;;;;;
79466;SPS30;68933;49.726;9.226;2024-02-16T00:42:26;5.7;;5.7;5.5;;;;;;
79466;SPS30;68933;49.726;9.226;2024-02-16T00:44:39;5.7;;5.7;5.5;;;;;;
79466;SPS30;68933;49.726;9.226;2024-02-16T00:46:52;5.7;;5.7;5.4;;;;;;
79466;SPS30;68933;49.726;9.226;2024-02-16T00:49:05;5.7;;5.7;5.4;;;;;;
79466;SPS30;68933;49.726;9.226;2024-02-16T00:51:18;5.5;;5.5;5.2;;;;;;
79466;SPS30;68933;49.726;9.226;2024-02-16T00:53:31;5.5;;5.5;5.2;;;;;;
79466;SPS30;68933;49.726;9.226;2024-02-16T00:55:44;6.3;;6.3;6;;;;;;
79466;SPS30;68933;49.726;9.226;2024-02-16T00:57:57;6.3;;6.3;6;;;;;;
79466;SPS30;68933;49.726;9.226;2024-02-16T01:00:10;6.2;;6.2;5.9;;;;;;
79466;SPS30;68933;49.726;9.226;2024-02-16T01:02:23;6.2;;6.2;5.9;;;;;;
79466;SPS30;68933;49.726;9.226;2024-02-16T01:04:36;6.2;;6.2;5.9;;;;;;
79466;SPS30;68933;49.726;9.226;2024-02-16T01:06:49;6.6;;6.6;6.2;;;;;;
79466;SPS30;68933;49.726;9.226;2024-02-16T01:09:02;6.6;;6.6;6.2;;;;;;
79466;SPS30;68933;49.726;9.226;2024-02-16T01:11:15;6.3;;6.3;6;;;;;;
79466;SPS30;68933;49.726;9.226;2024-02-16T01:13:28;6.3;;6.3;6;;;;;;
79466;SPS30;68933;49.726;9.226;2024-02-16T01:15:41;5.6;;5.6;5.3;;;;;;
79466;SPS30;68933;49.726;9.226;2024-02-16T01:17:54;5.6;;5.6;5.3;;;;;;
79466;SPS30;68933;49.726;9.226;2024-02-16T01:20:07;5.6;;5.6;5.3;;;;;;
79466;SPS30;68933;49.726;9.226;2024-02-16T01:22:20;5.5;;5.5;5.2;;;;;;
79466;SPS30;68933;49.726;9.226;2024-02-16T01:24:33;5.5;;5.5;5.2;;;;;;
79466;SPS30;68933;49.726;9.226;2024-02-16T01:26:46;5.1;;5.1;4.9;;;;;;
79466;SPS30;68933;49.726;9.226;2024-02-16T01:28:59;5.1;;5.1;4.9;;;;;;
79466;SPS30;68933;49.726;9.226;2024-02-16T01:31:12;5.1;;5.1;4.9;;;;;;
79466;SPS30;68933;49.726;9.226;2024-02-16T01:33:25;6.7;;6.7;6.4;;;;;;
79466;SPS30;68933;49.726;9.226;2024-02-16T01:35:38;6.7;;6.7;6.4;;;;;;
79466;SPS30;68933;49.726;9.226;2024-02-16T01:37:51;5.2;;5.2;4.9;;;;;;
79466;SPS30;68933;49.726;9.226;2024-02-16T01:40:04;5.2;;5.2;4.9;;;;;;
79466;SPS30;68933;49.726;9.226;2024-02-16T01:42:17;5.2;;5.2;4.9;;;;;;
79466;SPS30;68933;49.726;9.226;2024-02-16T01:44:30;4.3;;4.3;4.1;;;;;;
79466;SPS30;68933;49.726;9.226;2024-02-16T01:46:43;4.3;;4.3;4.1;;;;;;
79466;SPS30;68933;49.726;9.226;2024-02-16T01:48:56;5.8;;5.8;5.5;;;;;;
79466;SPS30;68933;49.726;9.226;2024-02-16T01:51:09;5.8;;5.8;5.5;;;;;;
79466;SPS30;68933;49.726;9.226;2024-02-16T01:53:22;5.2;;5.2;4.9;;;;;;
79466;SPS30;68933;49.726;9.226;2024-02-16T01:55:35;5.2;;5.2;4.9;;;;;;
79466;SPS30;68933;49.726;9.226;2024-02-16T01:57:48;5.2;;5.2;4.9;;;;;;
79466;SPS30;68933;49.726;9.226;2024-02-16T02:00:01;5.3;;5.3;5.1;;;;;;
79466;SPS30;68933;49.726;9.226;2024-02-16T02:02:14;5.3;;5.3;5.1;;;;;;
79466;SPS30;68933;49.726;9.226;2024-02-16T02:04:27;5.5;;5.5;5.3;;;;;;
79466;SPS30;68933;49.726;9.226;2024-02-16T02:06:40;5.5;;5.5;5.3;;;;;;
79466;SPS30;68933;49.726;9.226;2024-02-16T02:08:53;4.6;;4.6;4.4;;;;;;
79466;SPS30;68933;49.726;9.226;2024-02-16T02:11:06;4.6;;4.6;4.4;;;;;;
79466;SPS30;68933;49.726;9.226;2024-02-16T02:13:19;4.6;;4.6;4.4;;;;;;
79466;SPS30;68933;49.726;9.226;2024-02-16T02:15:32;4.6;;4.6;4.4;;;;;;
79466;SPS30;68933;49.726;9.226;2024-02-16T02:17:45;4.6;;4.6;4.4;;;;;;
79466;SPS30;68933;49.726;9.226;2024-02-16T02:19:58;4.7;;4.7;4.5;;;;;;
79466;SPS30;68933;49.726;9.226;2024-02-16T02:22:13;4.7;;4.7;4.5;;;;;;
79466;SPS30;68933;49.726;9.226;2024-02-16T02:24:24;4.8;;4.8;4.6;;;;;;
79466;SPS30;68933;49.726;9.226;2024-02-16T02:26:37;4.8;;4.8;4.6;;;;;;
79466;SPS30;68933;49.726;9.226;2024-02-16T02:28:50;4.8;;4.8;4.6;;;;;;
79466;SPS30;68933;49.726;9.226;2024-02-16T02:31:03;4.3;;4.3;4.1;;;;;;
79466;SPS30;68933;49.726;9.226;2024-02-16T02:33:16;4.3;;4.3;4.1;;;;;;
79466;SPS30;68933;49.726;9.226;2024-02-16T02:35:29;5;;5;4.7;;;;;;
79466;SPS30;68933;49.726;9.226;2024-02-16T02:37:42;5;;5;4.7;;;;;;
79466;SPS30;68933;49.726;9.226;2024-02-16T02:39:55;5.1;;5.1;4.8;;;;;;
79466;SPS30;68933;49.726;9.226;2024-02-16T02:42:08;5.1;;5.1;4.8;;;;;;
79466;SPS30;68933;49.726;9.226;2024-02-16T02:44:21;5.2;;5.2;5;;;;;;
79466;SPS30;68933;49.726;9.226;2024-02-16T02:46:34;5.2;;5.2;5;;;;;;
79466;SPS30;68933;49.726;9.226;2024-02-16T02:48:47;5.2;;5.2;5;;;;;;
79466;SPS30;68933;49.726;9.226;2024-02-16T02:51:00;5.9;;5.9;5.6;;;;;;
79466;SPS30;68933;49.726;9.226;2024-02-16T02:53:13;5.9;;5.9;5.6;;;;;;
79466;SPS30;68933;49.726;9.226;2024-02-16T02:55:26;6.2;;6.2;5.9;;;;;;
79466;SPS30;68933;49.726;9.226;2024-02-16T02:57:39;6.2;;6.2;5.9;;;;;;
79466;SPS30;68933;49.726;9.226;2024-02-16T02:59:52;5.6;;5.6;5.3;;;;;;
79466;SPS30;68933;49.726;9.226;2024-02-16T03:02:05;5.6;;5.6;5.3;;;;;;
79466;SPS30;68933;49.726;9.226;2024-02-16T03:04:18;6.3;;6.3;6;;;;;;
79466;SPS30;68933;49.726;9.226;2024-02-16T03:06:31;6.3;;6.3;6;;;;;;
79466;SPS30;68933;49.726;9.226;2024-02-16T03:08:44;6.3;;6.3;6;;;;;;
79466;SPS30;68933;49.726;9.226;2024-02-16T03:10:57;5.3;;5.3;5;;;;;;
79466;SPS30;68933;49.726;9.226;2024-02-16T03:13:10;5.3;;5.3;5;;;;;;
79466;SPS30;68933;49.726;9.226;2024-02-16T03:15:23;5.1;;5.1;4.9;;;;;;
79466;SPS30;68933;49.726;9.226;2024-02-16T03:17:36;5.1;;5.1;4.9;;;;;;
79466;SPS30;68933;49.726;9.226;2024-02-16T03:19:49;6.6;;6.6;6.3;;;;;;
79466;SPS30;68933;49.726;9.226;2024-02-16T03:22:02;6.6;;6.6;6.3;;;;;;
79466;SPS30;68933;49.726;9.226;2024-02-16T03:24:15;6.6;;6.6;6.3;;;;;;
79466;SPS30;68933;49.726;9.226;2024-02-16T03:26:28;6.6;;6.6;6.3;;;;;;
79466;SPS30;68933;49.726;9.226;2024-02-16T03:28:43;6.6;;6.6;6.3;;;;;;
79466;SPS30;68933;49.726;9.226;2024-02-16T03:30:54;6.9;;6.9;6.6;;;;;;
79466;SPS30;68933;49.726;9.226;2024-02-16T03:33:07;6.9;;6.9;6.6;;;;;;
79466;SPS30;68933;49.726;9.226;2024-02-16T03:35:20;7.3;;7.3;6.9;;;;;;
79466;SPS30;68933;49.726;9.226;2024-02-16T03:37:33;7.3;;7.3;6.9;;;;;;
79466;SPS30;68933;49.726;9.226;2024-02-16T03:39:46;6.7;;6.7;6.4;;;;;;
79466;SPS30;68933;49.726;9.226;2024-02-16T03:41:59;6.7;;6.7;6.4;;;;;;
79466;SPS30;68933;49.726;9.226;2024-02-16T03:44:12;6.3;;6.3;6;;;;;;
79466;SPS30;68933;49.726;9.226;2024-02-16T03:46:25;6.3;;6.3;6;;;;;;
79466;SPS30;68933;49.726;9.226;2024-02-16T03:48:38;7.4;;7.4;7;;;;;;
79466;SPS30;68933;49.726;9.226;2024-02-16T03:50:51;7.4;;7.4;7;;;;;;
79466;SPS30;68933;49.726;9.226;2024-02-16T03:53:04;6.6;;6.6;6.3;;;;;;
79466;SPS30;68933;49.726;9.226;2024-02-16T03:55:17;6.6;;6.6;6.3;;;;;;
79466;SPS30;68933;49.726;9.226;2024-02-16T03:57:30;6.6;;6.6;6.3;;;;;;
79466;SPS30;68933;49.726;9.226;2024-02-16T03:59:43;5.6;;5.6;5.3;;;;;;
79466;SPS30;68933;49.726;9.226;2024-02-16T04:01:56;5.6;;5.6;5.3;;;;;;
79466;SPS30;68933;49.726;9.226;2024-02-16T04:04:09;5.7;;5.7;5.4;;;;;;
79466;SPS30;68933;49.726;9.226;2024-02-16T04:06:22;5.7;;5.7;5.4;;;;;;
79466;SPS30;68933;49.726;9.226;2024-02-16T04:08:35;5.7;;5.7;5.4;;;;;;
79466;SPS30;68933;49.726;9.226;2024-02-16T04:10:48;5.4;;5.4;5.2;;;;;;
79466;SPS30;68933;49.726;9.226;2024-02-16T04:13:01;5.4;;5.4;5.2;;;;;;
79466;SPS30;68933;49.726;9.226;2024-02-16T04:15:14;5.1;;5.1;4.9;;;;;;
79466;SPS30;68933;49.726;9.226;2024-02-16T04:17:27;5.1;;5.1;4.9;;;;;;
79466;SPS30;68933;49.726;9.226;2024-02-16T04:19:40;5.1;;5.1;4.9;;;;;;
79466;SPS30;68933;49.726;9.226;2024-02-16T04:21:53;6;;6;5.7;;;;;;
79466;SPS30;68933;49.726;9.226;2024-02-16T04:24:06;6;;6;5.7;;;;;;
79466;SPS30;68933;49.726;9.226;2024-02-16T04:26:19;5.4;;5.4;5.2;;;;;;
79466;SPS30;68933;49.726;9.226;2024-02-16T04:28:32;5.4;;5.4;5.2;;;;;;
79466;SPS30;68933;49.726;9.226;2024-02-16T04:30:45;5.4;;5.4;5.2;;;;;;
79466;SPS30;68933;49.726;9.226;2024-02-16T04:32:58;6.4;;6.4;6.1;;;;;;
79466;SPS30;68933;49.726;9.226;2024-02-16T04:35:11;6.4;;6.4;6.1;;;;;;
79466;SPS30;68933;49.726;9.226;2024-02-16T04:37:24;5;;5;4.7;;;;;;
79466;SPS30;68933;49.726;9.226;2024-02-16T04:39:37;5;;5;4.7;;;;;;
79466;SPS30;68933;49.726;9.226;2024-02-16T04:41:50;5.6;;5.6;5.3;;;;;;
79466;SPS30;68933;49.726;9.226;2024-02-16T04:44:03;5.6;;5.6;5.3;;;;;;
79466;SPS30;68933;49.726;9.226;2024-02-16T04:46:16;5.6;;5.6;5.3;;;;;;
79466;SPS30;68933;49.726;9.226;2024-02-16T04:48:29;5.6;;5.6;5.4;;;;;;
79466;SPS30;68933;49.726;9.226;2024-02-16T04:50:42;5.6;;5.6;5.4;;;;;;
79466;SPS30;68933;49.726;9.226;2024-02-16T04:52:55;5;;5;4.8;;;;;;
79466;SPS30;68933;49.726;9.226;2024-02-16T04:55:08;5;;5;4.8;;;;;;
79466;SPS30;68933;49.726;9.226;2024-02-16T04:57:21;4.7;;4.7;4.5;;;;;;
79466;SPS30;68933;49.726;9.226;2024-02-16T04:59:34;4.7;;4.7;4.5;;;;;;
79466;SPS30;68933;49.726;9.226;2024-02-16T05:01:47;4.7;;4.7;4.5;;;;;;
79466;SPS30;68933;49.726;9.226;2024-02-16T05:04:00;5.6;;5.6;5.4;;;;;;
79466;SPS30;68933;49.726;9.226;2024-02-16T05:06:13;5.6;;5.6;5.4;;;;;;
79466;SPS30;68933;49.726;9.226;2024-02-16T05:08:26;5.6;;5.6;5.3;;;;;;
79466;SPS30;68933;49.726;9.226;2024-02-16T05:10:39;5.6;;5.6;5.3;;;;;;
79466;SPS30;68933;49.726;9.226;2024-02-16T05:12:52;5.5;;5.5;5.2;;;;;;
79466;SPS30;68933;49.726;9.226;2024-02-16T05:15:05;5.5;;5.5;5.2;;;;;;
79466;SPS30;68933;49.726;9.226;2024-02-16T05:17:18;5.5;;5.5;5.2;;;;;;
79466;SPS30;68933;49.726;9.226;2024-02-16T05:19:32;5.7;;5.7;5.4;;;;;;
79466;SPS30;68933;49.726;9.226;2024-02-16T05:21:44;5.7;;5.7;5.4;;;;;;
79466;SPS30;68933;49.726;9.226;2024-02-16T05:23:57;5.1;;5.1;4.9;;;;;;
79466;SPS30;68933;49.726;9.226;2024-02-16T05:26:10;5.1;;5.1;4.9;;;;;;
79466;SPS30;68933;49.726;9.226;2024-02-16T05:28:23;6;;6;5.8;;;;;;
79466;SPS30;68933;49.726;9.226;2024-02-16T05:30:36;6;;6;5.8;;;;;;
79466;SPS30;68933;49.726;9.226;2024-02-16T05:32:49;6;;6;5.8;;;;;;
79466;SPS30;68933;49.726;9.226;2024-02-16T05:35:03;6.1;;6.1;5.8;;;;;;
79466;SPS30;68933;49.726;9.226;2024-02-16T05:37:15;6.1;;6.1;5.8;;;;;;
79466;SPS30;68933;49.726;9.226;2024-02-16T05:39:28;5.6;;5.6;5.3;;;;;;
79466;SPS30;68933;49.726;9.226;2024-02-16T05:41:41;5.6;;5.6;5.3;;;;;;
79466;SPS30;68933;49.726;9.226;2024-02-16T05:43:54;6.2;;6.2;5.9;;;;;;
79466;SPS30;68933;49.726;9.226;2024-02-16T05:46:07;6.2;;6.2;5.9;;;;;;
79466;SPS30;68933;49.726;9.226;2024-02-16T05:48:20;6.2;;6.2;5.9;;;;;;
79466;SPS30;68933;49.726;9.226;2024-02-16T05:50:33;6.2;;6.2;5.9;;;;;;
79466;SPS30;68933;49.726;9.226;2024-02-16T05:52:46;6.2;;6.2;5.9;;;;;;
79466;SPS30;68933;49.726;9.226;2024-02-16T05:54:59;5.8;;5.8;5.6;;;;;;
79466;SPS30;68933;49.726;9.226;2024-02-16T05:57:12;6.1;;6.1;5.8;;;;;;
79466;SPS30;68933;49.726;9.226;2024-02-16T05:59:25;6;;6;5.8;;;;;;
79466;SPS30;68933;49.726;9.226;2024-02-16T06:01:38;6;;6;5.8;;;;;;
79466;SPS30;68933;49.726;9.226;2024-02-16T06:03:51;5.7;;5.7;5.4;;;;;;
79466;SPS30;68933;49.726;9.226;2024-02-16T06:06:04;5.7;;5.7;5.4;;;;;;
79466;SPS30;68933;49.726;9.226;2024-02-16T06:08:17;6.7;;6.7;6.3;;;;;;
79466;SPS30;68933;49.726;9.226;2024-02-16T06:10:30;6.7;;6.7;6.3;;;;;;
79466;SPS30;68933;49.726;9.226;2024-02-16T06:12:43;6.7;;6.7;6.3;;;;;;
79466;SPS30;68933;49.726;9.226;2024-02-16T06:14:56;7.3;;7.3;7;;;;;;
79466;SPS30;68933;49.726;9.226;2024-02-16T06:17:09;7.3;;7.3;7;;;;;;
79466;SPS30;68933;49.726;9.226;2024-02-16T06:19:22;6.9;;6.9;6.5;;;;;;
79466;SPS30;68933;49.726;9.226;2024-02-16T06:21:35;6.9;;6.9;6.5;;;;;;
79466;SPS30;68933;49.726;9.226;2024-02-16T06:23:48;7.2;;7.2;6.9;;;;;;
79466;SPS30;68933;49.726;9.226;2024-02-16T06:26:01;7.2;;7.2;6.9;;;;;;
79466;SPS30;68933;49.726;9.226;2024-02-16T06:28:14;6.7;;6.7;6.4;;;;;;
79466;SPS30;68933;49.726;9.226;2024-02-16T06:30:27;6.7;;6.7;6.4;;;;;;
79466;SPS30;68933;49.726;9.226;2024-02-16T06:32:40;6.7;;6.7;6.4;;;;;;
79466;SPS30;68933;49.726;9.226;2024-02-16T06:34:53;6.6;;6.6;6.3;;;;;;
79466;SPS30;68933;49.726;9.226;2024-02-16T06:37:06;6.6;;6.6;6.3;;;;;;
79466;SPS30;68933;49.726;9.226;2024-02-16T06:39:19;5.7;;5.7;5.5;;;;;;
79466;SPS30;68933;49.726;9.226;2024-02-16T06:41:32;5.7;;5.7;5.5;;;;;;
79466;SPS30;68933;49.726;9.226;2024-02-16T06:43:45;6;;6;5.7;;;;;;
79466;SPS30;68933;49.726;9.226;2024-02-16T06:45:58;6;;6;5.7;;;;;;
79466;SPS30;68933;49.726;9.226;2024-02-16T06:48:11;7.8;;7.8;7.5;;;;;;
79466;SPS30;68933;49.726;9.226;2024-02-16T06:50:24;7.8;;7.8;7.5;;;;;;
79466;SPS30;68933;49.726;9.226;2024-02-16T06:52:37;10.5;;10.5;10;;;;;;
79466;SPS30;68933;49.726;9.226;2024-02-16T06:54:50;10.5;;10.5;10;;;;;;
79466;SPS30;68933;49.726;9.226;2024-02-16T06:57:03;16.2;;16.2;15.5;;;;;;
79466;SPS30;68933;49.726;9.226;2024-02-16T06:59:16;16.2;;16.2;15.5;;;;;;
79466;SPS30;68933;49.726;9.226;2024-02-16T07:01:29;16.2;;16.2;15.5;;;;;;
79466;SPS30;68933;49.726;9.226;2024-02-16T07:03:42;14.7;;14.7;14;;;;;;
79466;SPS30;68933;49.726;9.226;2024-02-16T07:05:55;14.7;;14.7;14;;;;;;
79466;SPS30;68933;49.726;9.226;2024-02-16T07:08:08;14.7;;14.7;14.1;;;;;;
79466;SPS30;68933;49.726;9.226;2024-02-16T07:10:21;14.7;;14.7;14.1;;;;;;
79466;SPS30;68933;49.726;9.226;2024-02-16T07:12:34;14.7;;14.7;14.1;;;;;;
79466;SPS30;68933;49.726;9.226;2024-02-16T07:14:47;8.6;;8.5;8.1;;;;;;
79466;SPS30;68933;49.726;9.226;2024-02-16T07:17:00;8.6;;8.5;8.1;;;;;;
79466;SPS30;68933;49.726;9.226;2024-02-16T07:19:13;8;;8;7.6;;;;;;
79466;SPS30;68933;49.726;9.226;2024-02-16T07:21:26;8;;8;7.6;;;;;;
79466;SPS30;68933;49.726;9.226;2024-02-16T07:23:39;8;;8;7.6;;;;;;
79466;SPS30;68933;49.726;9.226;2024-02-16T07:25:52;6.9;;6.9;6.6;;;;;;
79466;SPS30;68933;49.726;9.226;2024-02-16T07:28:05;6.9;;6.9;6.6;;;;;;
79466;SPS30;68933;49.726;9.226;2024-02-16T07:30:18;7.9;;7.9;7.5;;;;;;
79466;SPS30;68933;49.726;9.226;2024-02-16T07:32:31;7.9;;7.9;7.5;;;;;;
79466;SPS30;68933;49.726;9.226;2024-02-16T07:34:45;7.9;;7.9;7.5;;;;;;
79466;SPS30;68933;49.726;9.226;2024-02-16T07:36:57;9.1;;9.1;8.7;;;;;;
79466;SPS30;68933;49.726;9.226;2024-02-16T07:39:10;9.1;;9.1;8.7;;;;;;
79466;SPS30;68933;49.726;9.226;2024-02-16T07:41:23;8;;8;7.7;;;;;;
79466;SPS30;68933;49.726;9.226;2024-02-16T07:43:36;8;;8;7.7;;;;;;
79466;SPS30;68933;49.726;9.226;2024-02-16T07:45:49;8;;8;7.7;;;;;;
79466;SPS30;68933;49.726;9.226;2024-02-16T07:48:02;6.5;;6.5;6.2;;;;;;
79466;SPS30;68933;49.726;9.226;2024-02-16T07:50:17;6.5;;6.5;6.2;;;;;;
79466;SPS30;68933;49.726;9.226;2024-02-16T07:52:28;6.7;;6.7;6.4;;;;;;
79466;SPS30;68933;49.726;9.226;2024-02-16T07:54:41;6.7;;6.7;6.4;;;;;;
79466;SPS30;68933;49.726;9.226;2024-02-16T07:56:54;6.2;;6.2;5.9;;;;;;
79466;SPS30;68933;49.726;9.226;2024-02-16T07:59:07;6.2;;6.2;5.9;;;;;;
79466;SPS30;68933;49.726;9.226;2024-02-16T08:01:20;6.2;;6.2;5.9;;;;;;
79466;SPS30;68933;49.726;9.226;2024-02-16T08:03:33;7.2;;7.2;6.8;;;;;;
79466;SPS30;68933;49.726;9.226;2024-02-16T08:05:46;7.2;;7.2;6.8;;;;;;
79466;SPS30;68933;49.726;9.226;2024-02-16T08:07:59;6.3;;6.3;6;;;;;;
79466;SPS30;68933;49.726;9.226;2024-02-16T08:10:12;6.3;;6.3;6;;;;;;
79466;SPS30;68933;49.726;9.226;2024-02-16T08:12:25;6.3;;6.3;6;;;;;;
79466;SPS30;68933;49.726;9.226;2024-02-16T08:14:38;9.3;;9.3;8.9;;;;;;
79466;SPS30;68933;49.726;9.226;2024-02-16T08:16:51;9.3;;9.3;8.9;;;;;;
79466;SPS30;68933;49.726;9.226;2024-02-16T08:19:04;9.6;;9.6;9.1;;;;;;
79466;SPS30;68933;49.726;9.226;2024-02-16T08:21:17;9.6;;9.6;9.1;;;;;;
79466;SPS30;68933;49.726;9.226;2024-02-16T08:23:30;10.1;;10.1;9.6;;;;;;
79466;SPS30;68933;49.726;9.226;2024-02-16T08:25:43;10.1;;10.1;9.6;;;;;;
79466;SPS30;68933;49.726;9.226;2024-02-16T08:27:56;10.1;;10.1;9.6;;;;;;
79466;SPS30;68933;49.726;9.226;2024-02-16T08:30:09;9.5;;9.5;9.1;;;;;;
79466;SPS30;68933;49.726;9.226;2024-02-16T08:32:22;9.5;;9.5;9.1;;;;;;
79466;SPS30;68933;49.726;9.226;2024-02-16T08:34:35;7.7;;7.7;7.3;;;;;;
79466;SPS30;68933;49.726;9.226;2024-02-16T08:36:48;7.7;;7.7;7.3;;;;;;
79466;SPS30;68933;49.726;9.226;2024-02-16T08:39:01;8.2;;8.2;7.9;;;;;;
79466;SPS30;68933;49.726;9.226;2024-02-16T08:41:14;8.2;;8.2;7.9;;;;;;
79466;SPS30;68933;49.726;9.226;2024-02-16T08:43:27;8.2;;8.2;7.9;;;;;;
79466;SPS30;68933;49.726;9.226;2024-02-16T08:45:40;10.5;;10.5;10;;;;;;
79466;SPS30;68933;49.726;9.226;2024-02-16T08:47:53;10.5;;10.5;10;;;;;;
79466;SPS30;68933;49.726;9.226;2024-02-16T08:50:06;10.2;;10.2;9.7;;;;;;
79466;SPS30;68933;49.726;9.226;2024-02-16T08:52:19;10.2;;10.2;9.7;;;;;;
79466;SPS30;68933;49.726;9.226;2024-02-16T08:54:32;12.1;;12.1;11.6;;;;;;
79466;SPS30;68933;49.726;9.226;2024-02-16T08:56:45;12.1;;12.1;11.6;;;;;;
79466;SPS30;68933;49.726;9.226;2024-02-16T08:58:58;8.9;;8.9;8.5;;;;;;
79466;SPS30;68933;49.726;9.226;2024-02-16T09:01:11;8.9;;8.9;8.5;;;;;;
79466;SPS30;68933;49.726;9.226;2024-02-16T09:03:24;8.9;;8.9;8.5;;;;;;
79466;SPS30;68933;49.726;9.226;2024-02-16T09:05:37;16.7;;16.7;15.9;;;;;;
79466;SPS30;68933;49.726;9.226;2024-02-16T09:07:50;16.7;;16.7;15.9;;;;;;
79466;SPS30;68933;49.726;9.226;2024-02-16T09:10:03;20.9;;20.8;19.8;;;;;;
79466;SPS30;68933;49.726;9.226;2024-02-16T09:12:16;20.9;;20.8;19.8;;;;;;
79466;SPS30;68933;49.726;9.226;2024-02-16T09:14:29;11.3;;11.3;10.7;;;;;;
79466;SPS30;68933;49.726;9.226;2024-02-16T09:16:42;11.3;;11.3;10.7;;;;;;
79466;SPS30;68933;49.726;9.226;2024-02-16T09:18:55;11.2;;11.2;10.7;;;;;;
79466;SPS30;68933;49.726;9.226;2024-02-16T09:21:08;11.2;;11.2;10.7;;;;;;
79466;SPS30;68933;49.726;9.226;2024-02-16T09:23:21;9.5;;9.5;9.1;;;;;;
79466;SPS30;68933;49.726;9.226;2024-02-16T09:25:34;9.5;;9.5;9.1;;;;;;
79466;SPS30;68933;49.726;9.226;2024-02-16T09:27:47;9.5;;9.5;9.1;;;;;;
79466;SPS30;68933;49.726;9.226;2024-02-16T09:30:00;9.6;;9.6;9.1;;;;;;
79466;SPS30;68933;49.726;9.226;2024-02-16T09:32:13;9.6;;9.6;9.1;;;;;;
79466;SPS30;68933;49.726;9.226;2024-02-16T09:34:26;9.1;;9.1;8.7;;;;;;
79466;SPS30;68933;49.726;9.226;2024-02-16T09:36:39;9.1;;9.1;8.7;;;;;;
79466;SPS30;68933;49.726;9.226;2024-02-16T09:38:52;8;;8;7.6;;;;;;
79466;SPS30;68933;49.726;9.226;2024-02-16T09:41:05;8;;8;7.6;;;;;;
79466;SPS30;68933;49.726;9.226;2024-02-16T09:43:26;8.2;;8.2;7.8;;;;;;
79466;SPS30;68933;49.726;9.226;2024-02-16T09:45:31;8.2;;8.2;7.8;;;;;;
79466;SPS30;68933;49.726;9.226;2024-02-16T09:47:44;8.2;;8.2;7.8;;;;;;
79466;SPS30;68933;49.726;9.226;2024-02-16T09:49:57;8.3;;8.3;7.9;;;;;;
79466;SPS30;68933;49.726;9.226;2024-02-16T09:52:10;8.3;;8.3;7.9;;;;;;
79466;SPS30;68933;49.726;9.226;2024-02-16T09:54:23;8;;8;7.6;;;;;;
79466;SPS30;68933;49.726;9.226;2024-02-16T09:56:36;8;;8;7.6;;;;;;
79466;SPS30;68933;49.726;9.226;2024-02-16T09:58:49;8.1;;8.1;7.7;;;;;;
79466;SPS30;68933;49.726;9.226;2024-02-16T10:01:02;8.1;;8.1;7.7;;;;;;
79466;SPS30;68933;49.726;9.226;2024-02-16T10:03:31;7.6;;7.6;7.3;;;;;;
79466;SPS30;68933;49.726;9.226;2024-02-16T10:05:28;7.6;;7.6;7.3;;;;;;
79466;SPS30;68933;49.726;9.226;2024-02-16T10:07:41;6.9;;6.9;6.6;;;;;;
79466;SPS30;68933;49.726;9.226;2024-02-16T10:09:54;6.9;;6.9;6.6;;;;;;
79466;SPS30;68933;49.726;9.226;2024-02-16T10:12:07;7.5;;7.5;7.1;;;;;;
79466;SPS30;68933;49.726;9.226;2024-02-16T10:14:20;7.5;;7.5;7.1;;;;;;
79466;SPS30;68933;49.726;9.226;2024-02-16T10:16:33;7.5;;7.5;7.1;;;;;;
79466;SPS30;68933;49.726;9.226;2024-02-16T10:18:46;7.3;;7.3;6.9;;;;;;
79466;SPS30;68933;49.726;9.226;2024-02-16T10:20:59;7.3;;7.3;6.9;;;;;;
79466;SPS30;68933;49.726;9.226;2024-02-16T10:23:12;8.3;;8.3;7.9;;;;;;
79466;SPS30;68933;49.726;9.226;2024-02-16T10:25:25;8.3;;8.3;7.9;;;;;;
79466;SPS30;68933;49.726;9.226;2024-02-16T10:27:38;8.3;;8.3;7.9;;;;;;
79466;SPS30;68933;49.726;9.226;2024-02-16T10:29:51;8.1;;8.1;7.7;;;;;;
79466;SPS30;68933;49.726;9.226;2024-02-16T10:32:04;8.1;;8.1;7.7;;;;;;
79466;SPS30;68933;49.726;9.226;2024-02-16T10:34:17;9.7;;9.7;9.3;;;;;;
79466;SPS30;68933;49.726;9.226;2024-02-16T10:36:31;9.7;;9.7;9.3;;;;;;
79466;SPS30;68933;49.726;9.226;2024-02-16T10:38:43;9.7;;9.7;9.3;;;;;;
79466;SPS30;68933;49.726;9.226;2024-02-16T10:40:56;10.2;;10.2;9.7;;;;;;
79466;SPS30;68933;49.726;9.226;2024-02-16T10:43:09;10.2;;10.2;9.7;;;;;;
79466;SPS30;68933;49.726;9.226;2024-02-16T10:45:22;8.5;;8.5;8.1;;;;;;
79466;SPS30;68933;49.726;9.226;2024-02-16T10:47:35;8.5;;8.5;8.1;;;;;;
79466;SPS30;68933;49.726;9.226;2024-02-16T10:49:48;8.5;;8.5;8.1;;;;;;
79466;SPS30;68933;49.726;9.226;2024-02-16T10:52:01;5.1;;5.1;4.9;;;;;;
79466;SPS30;68933;49.726;9.226;2024-02-16T10:54:15;5.1;;5.1;4.9;;;;;;
79466;SPS30;68933;49.726;9.226;2024-02-16T10:56:28;5.7;;5.7;5.4;;;;;;
79466;SPS30;68933;49.726;9.226;2024-02-16T10:58:40;5.7;;5.7;5.4;;;;;;
79466;SPS30;68933;49.726;9.226;2024-02-16T11:00:53;4.8;;4.8;4.5;;;;;;
79466;SPS30;68933;49.726;9.226;2024-02-16T11:03:06;4.8;;4.8;4.5;;;;;;
79466;SPS30;68933;49.726;9.226;2024-02-16T11:05:19;4.8;;4.8;4.5;;;;;;
79466;SPS30;68933;49.726;9.226;2024-02-16T11:07:32;3.8;;3.8;3.6;;;;;;
79466;SPS30;68933;49.726;9.226;2024-02-16T11:09:45;3.8;;3.8;3.6;;;;;;
79466;SPS30;68933;49.726;9.226;2024-02-16T11:11:59;4.2;;4.2;4;;;;;;
79466;SPS30;68933;49.726;9.226;2024-02-16T11:14:14;4.2;;4.2;4;;;;;;
79466;SPS30;68933;49.726;9.226;2024-02-16T11:16:24;3.5;;3.5;3.3;;;;;;
79466;SPS30;68933;49.726;9.226;2024-02-16T11:18:38;3.5;;3.5;3.3;;;;;;
79466;SPS30;68933;49.726;9.226;2024-02-16T11:20:50;3.5;;3.5;3.3;;;;;;
79466;SPS30;68933;49.726;9.226;2024-02-16T11:23:04;3.5;;3.5;3.3;;;;;;
79466;SPS30;68933;49.726;9.226;2024-02-16T11:25:16;3.5;;3.5;3.3;;;;;;
79466;SPS30;68933;49.726;9.226;2024-02-16T11:27:30;3.5;;3.5;3.3;;;;;;
79466;SPS30;68933;49.726;9.226;2024-02-16T11:29:42;3.5;;3.5;3.3;;;;;;
79466;SPS30;68933;49.726;9.226;2024-02-16T11:31:55;3.2;;3.1;3;;;;;;
79466;SPS30;68933;49.726;9.226;2024-02-16T11:34:08;3.2;;3.1;3;;;;;;
79466;SPS30;68933;49.726;9.226;2024-02-16T11:36:21;3.2;;3.1;3;;;;;;
79466;SPS30;68933;49.726;9.226;2024-02-16T11:38:34;3.8;;3.8;3.6;;;;;;
79466;SPS30;68933;49.726;9.226;2024-02-16T11:40:55;3.8;;3.8;3.6;;;;;;
79466;SPS30;68933;49.726;9.226;2024-02-16T11:43:00;3.4;;3.4;3.3;;;;;;
79466;SPS30;68933;49.726;9.226;2024-02-16T11:45:13;3.4;;3.4;3.3;;;;;;
79466;SPS30;68933;49.726;9.226;2024-02-16T11:47:26;3.2;;3.2;3.1;;;;;;
79466;SPS30;68933;49.726;9.226;2024-02-16T11:49:39;3.2;;3.2;3.1;;;;;;
79466;SPS30;68933;49.726;9.226;2024-02-16T11:51:52;3.2;;3.2;3.1;;;;;;
79466;SPS30;68933;49.726;9.226;2024-02-16T11:54:05;3.5;;3.5;3.3;;;;;;
79466;SPS30;68933;49.726;9.226;2024-02-16T11:56:22;3.5;;3.5;3.3;;;;;;
79466;SPS30;68933;49.726;9.226;2024-02-16T11:58:31;3.9;;3.9;3.7;;;;;;
79466;SPS30;68933;49.726;9.226;2024-02-16T12:00:44;3.9;;3.9;3.7;;;;;;
79466;SPS30;68933;49.726;9.226;2024-02-16T12:02:58;3.2;;3.2;3.1;;;;;;
79466;SPS30;68933;49.726;9.226;2024-02-16T12:05:13;3.2;;3.2;3.1;;;;;;
79466;SPS30;68933;49.726;9.226;2024-02-16T12:07:25;3.2;;3.2;3;;;;;;
79466;SPS30;68933;49.726;9.226;2024-02-16T12:09:36;3.2;;3.2;3;;;;;;
79466;SPS30;68933;49.726;9.226;2024-02-16T12:11:49;3.2;;3.2;3;;;;;;
79466;SPS30;68933;49.726;9.226;2024-02-16T12:14:02;2.9;;2.9;2.8;;;;;;
79466;SPS30;68933;49.726;9.226;2024-02-16T12:16:15;2.9;;2.9;2.8;;;;;;
79466;SPS30;68933;49.726;9.226;2024-02-16T12:18:28;3.5;;3.5;3.3;;;;;;
79466;SPS30;68933;49.726;9.226;2024-02-16T12:20:41;3.5;;3.5;3.3;;;;;;
79466;SPS30;68933;49.726;9.226;2024-02-16T12:22:54;3.3;;3.3;3.2;;;;;;
79466;SPS30;68933;49.726;9.226;2024-02-16T12:25:07;3.3;;3.3;3.2;;;;;;
79466;SPS30;68933;49.726;9.226;2024-02-16T12:27:20;3.3;;3.3;3.1;;;;;;
79466;SPS30;68933;49.726;9.226;2024-02-16T12:29:33;3.3;;3.3;3.1;;;;;;
79466;SPS30;68933;49.726;9.226;2024-02-16T12:31:46;2.9;;2.9;2.7;;;;;;
79466;SPS30;68933;49.726;9.226;2024-02-16T12:33:59;2.9;;2.9;2.7;;;;;;
79466;SPS30;68933;49.726;9.226;2024-02-16T12:36:12;2.9;;2.9;2.7;;;;;;
79466;SPS30;68933;49.726;9.226;2024-02-16T12:38:25;3.4;;3.4;3.2;;;;;;
79466;SPS30;68933;49.726;9.226;2024-02-16T12:40:38;3.4;;3.4;3.2;;;;;;
79466;SPS30;68933;49.726;9.226;2024-02-16T12:42:51;4.1;;4.1;3.9;;;;;;
79466;SPS30;68933;49.726;9.226;2024-02-16T12:45:04;4.1;;4.1;3.9;;;;;;